createdAt,value
2019-06-01T00:02:07.456Z,99980.53
2019-06-01T00:04:36.867Z,99982.09
2019-06-01T00:07:06.340Z,99976.95
2019-06-01T00:09:35.796Z,99970.30
2019-06-01T00:12:05.210Z,99966.23
2019-06-01T00:14:34.636Z,99974.69
2019-06-01T00:17:04.059Z,99974.48
2019-06-01T00:19:33.498Z,99970.62
2019-06-01T00:22:02.939Z,99966.02
2019-06-01T00:24:32.365Z,99967.09
2019-06-01T00:27:01.860Z,99963.94
2019-06-01T00:29:31.300Z,99963.20
2019-06-01T00:32:00.735Z,99962.89
2019-06-01T00:34:30.182Z,99964.88
2019-06-01T00:36:59.678Z,99960.59
2019-06-01T00:39:29.107Z,99958.41
2019-06-01T00:41:58.538Z,99957.67
2019-06-01T00:44:27.991Z,99957.36
2019-06-01T00:46:57.422Z,99952.25
2019-06-01T00:49:26.877Z,99956.60
2019-06-01T00:51:56.301Z,99958.92
2019-06-01T00:54:25.783Z,99953.60
2019-06-01T00:56:55.230Z,99955.27
2019-06-01T00:59:24.682Z,99959.55
2019-06-01T01:01:54.285Z,99959.55
2019-06-01T01:04:23.741Z,99954.97
2019-06-01T01:06:53.269Z,99946.06
2019-06-01T01:09:22.841Z,99949.09
2019-06-01T01:11:53.306Z,99949.22
2019-06-01T01:14:22.983Z,99951.83
2019-06-01T01:16:54.035Z,99947.77
2019-06-01T01:19:23.805Z,99945.15
2019-06-01T01:21:54.116Z,99938.50
2019-06-01T01:24:23.576Z,99940.24
2019-06-01T01:26:53.109Z,99933.05
2019-06-01T01:29:22.604Z,99928.34
2019-06-01T01:31:53.163Z,99934.43
2019-06-01T01:34:22.817Z,99924.41
2019-06-01T01:36:53.073Z,99924.28
2019-06-01T01:39:23.762Z,99923.03
2019-06-01T01:41:54.239Z,99926.16
2019-06-01T01:44:23.896Z,99919.17
2019-06-01T01:46:53.476Z,99919.69
2019-06-01T01:49:22.949Z,99916.84
2019-06-01T01:51:52.825Z,99906.41
2019-06-01T01:54:22.574Z,99907.34
2019-06-01T01:56:52.131Z,99906.86
2019-06-01T01:59:21.624Z,99906.55
2019-06-01T02:01:51.059Z,99903.83
2019-06-01T02:04:20.498Z,99906.75
2019-06-01T02:06:49.896Z,99909.98
2019-06-01T02:09:19.335Z,99907.90
2019-06-01T02:11:48.773Z,99910.30
2019-06-01T02:14:18.310Z,99917.81
2019-06-01T02:16:47.731Z,99912.83
2019-06-01T02:19:17.172Z,99906.64
2019-06-01T02:21:46.609Z,99906.95
2019-06-01T02:24:16.092Z,99909.78
2019-06-01T02:26:45.589Z,99907.58
2019-06-01T02:29:15.009Z,99911.66
2019-06-01T02:31:44.435Z,99910.72
2019-06-01T02:34:13.865Z,99926.50
2019-06-01T02:36:43.316Z,99930.25
2019-06-01T02:39:13.919Z,99932.23
2019-06-01T02:41:43.346Z,99924.28
2019-06-01T02:44:12.792Z,99923.69
2019-06-01T02:46:42.231Z,99922.51
2019-06-01T02:49:11.667Z,99930.55
2019-06-01T02:51:41.076Z,99936.36
2019-06-01T02:54:10.523Z,99934.90
2019-06-01T02:56:39.932Z,99932.73
2019-06-01T02:59:09.371Z,99936.36
2019-06-01T03:01:38.814Z,99941.58
2019-06-01T03:04:09.485Z,99940.53
2019-06-01T03:06:40.934Z,99938.45
2019-06-01T03:09:10.343Z,99948.44
2019-06-01T03:11:40.202Z,99945.63
2019-06-01T03:14:10.361Z,99943.81
2019-06-01T03:16:40.468Z,99945.27
2019-06-01T03:19:10.318Z,99943.19
2019-06-01T03:21:39.821Z,99946.73
2019-06-01T03:24:10.618Z,99950.36
2019-06-01T03:26:44.155Z,99939.81
2019-06-01T03:29:20.482Z,99946.91
2019-06-01T03:31:50.056Z,99944.82
2019-06-01T03:34:19.480Z,99942.52
2019-06-01T03:36:48.911Z,99943.98
2019-06-01T03:39:18.450Z,99942.83
2019-06-01T03:41:47.881Z,99941.05
2019-06-01T03:44:17.337Z,99944.36
2019-06-01T03:46:46.856Z,99945.08
2019-06-01T03:49:16.404Z,99950.83
2019-06-01T03:51:45.970Z,99941.28
2019-06-01T03:54:15.519Z,99937.61
2019-06-01T03:56:44.945Z,99940.17
2019-06-01T03:59:14.516Z,99941.86
2019-06-01T04:01:47.059Z,99946.28
2019-06-01T04:04:15.141Z,99943.02
2019-06-01T04:06:44.633Z,99953.63
2019-06-01T04:09:14.148Z,99948.13
2019-06-01T04:11:43.617Z,99949.31
2019-06-01T04:14:13.358Z,99957.69
2019-06-01T04:16:43.592Z,99955.32
2019-06-01T04:19:13.058Z,99962.16
2019-06-01T04:21:42.633Z,99966.42
2019-06-01T04:24:12.389Z,99966.43
2019-06-01T04:26:41.984Z,99968.72
2019-06-01T04:29:12.589Z,99970.61
2019-06-01T04:31:42.256Z,99969.91
2019-06-01T04:34:11.697Z,99972.64
2019-06-01T04:36:41.173Z,99969.30
2019-06-01T04:39:11.680Z,99966.75
2019-06-01T04:41:41.188Z,99978.25
2019-06-01T04:44:11.943Z,99976.41
2019-06-01T04:46:41.735Z,99973.34
2019-06-01T04:49:11.222Z,99976.89
2019-06-01T04:51:40.787Z,99978.59
2019-06-01T04:54:11.539Z,99982.80
2019-06-01T04:56:41.281Z,99984.52
2019-06-01T04:59:10.970Z,99979.55
2019-06-01T05:01:40.428Z,99979.14
2019-06-01T05:04:11.088Z,99977.77
2019-06-01T05:06:40.576Z,99980.23
2019-06-01T05:09:11.276Z,99974.14
2019-06-01T05:11:40.794Z,99972.97
2019-06-01T05:14:10.214Z,99968.63
2019-06-01T05:16:39.677Z,99969.19
2019-06-01T05:19:10.137Z,99971.78
2019-06-01T05:21:39.631Z,99976.31
2019-06-01T05:24:09.069Z,99967.98
2019-06-01T05:26:38.486Z,99969.91
2019-06-01T05:29:09.286Z,99966.12
2019-06-01T05:31:38.921Z,99980.03
2019-06-01T05:34:09.625Z,99977.11
2019-06-01T05:36:39.322Z,99982.70
2019-06-01T05:39:10.306Z,99979.08
2019-06-01T05:41:39.834Z,99985.80
2019-06-01T05:44:09.253Z,99980.14
2019-06-01T05:46:38.811Z,99995.22
2019-06-01T05:49:08.218Z,99997.26
2019-06-01T05:51:37.657Z,99996.73
2019-06-01T05:54:07.096Z,100000.53
2019-06-01T05:56:36.535Z,99999.09
2019-06-01T05:59:06.021Z,99999.81
2019-06-01T06:01:35.472Z,100003.82
2019-06-01T06:04:04.975Z,99999.44
2019-06-01T06:06:34.515Z,99999.09
2019-06-01T06:09:05.371Z,99992.77
2019-06-01T06:11:34.996Z,99992.09
2019-06-01T06:14:04.424Z,99993.16
2019-06-01T06:16:34.042Z,99993.47
2019-06-01T06:19:03.612Z,99998.36
2019-06-01T06:21:33.111Z,99996.59
2019-06-01T06:24:02.556Z,99996.77
2019-06-01T06:26:32.030Z,99991.39
2019-06-01T06:29:01.499Z,99997.19
2019-06-01T06:31:30.934Z,100001.19
2019-06-01T06:34:00.408Z,100002.05
2019-06-01T06:36:29.847Z,99994.17
2019-06-01T06:38:59.352Z,99999.23
2019-06-01T06:41:28.792Z,99992.69
2019-06-01T06:43:58.219Z,99995.42
2019-06-01T06:46:27.684Z,100000.53
2019-06-01T06:48:57.117Z,99993.77
2019-06-01T06:51:26.732Z,99986.59
2019-06-01T06:53:56.172Z,99997.71
2019-06-01T06:56:26.201Z,99995.48
2019-06-01T06:58:55.683Z,99990.80
2019-06-01T07:01:25.121Z,99991.09
2019-06-01T07:03:54.702Z,99989.98
2019-06-01T07:06:24.201Z,99987.38
2019-06-01T07:08:53.879Z,99988.95
2019-06-01T07:11:23.515Z,99984.06
2019-06-01T07:13:52.985Z,99987.72
2019-06-01T07:16:23.443Z,99983.91
2019-06-01T07:18:53.073Z,99975.80
2019-06-01T07:21:23.823Z,99981.22
2019-06-01T07:23:53.269Z,99979.52
2019-06-01T07:26:23.996Z,99980.36
2019-06-01T07:28:53.559Z,99974.84
2019-06-01T07:31:24.162Z,99979.18
2019-06-01T07:33:53.751Z,99980.95
2019-06-01T07:36:24.461Z,99976.87
2019-06-01T07:38:53.932Z,99973.02
2019-06-01T07:41:24.657Z,99976.52
2019-06-01T07:43:54.199Z,99980.50
2019-06-01T07:46:24.901Z,99977.95
2019-06-01T07:48:54.405Z,99978.94
2019-06-01T07:51:25.124Z,99976.35
2019-06-01T07:53:54.826Z,99982.17
2019-06-01T07:56:24.403Z,99984.02
2019-06-01T07:58:54.053Z,99985.09
2019-06-01T08:01:25.138Z,99986.05
2019-06-01T08:03:54.801Z,99979.70
2019-06-01T08:06:26.068Z,99982.41
2019-06-01T08:08:55.573Z,99982.11
2019-06-01T08:11:29.369Z,99980.17
2019-06-01T08:13:56.484Z,99979.89
2019-06-01T08:16:25.992Z,99979.20
2019-06-01T08:18:55.378Z,99979.22
2019-06-01T08:21:25.954Z,99976.95
2019-06-01T08:23:55.487Z,99982.66
2019-06-01T08:26:26.380Z,99976.25
2019-06-01T08:28:56.144Z,99976.03
2019-06-01T08:31:26.613Z,99981.26
2019-06-01T08:33:56.199Z,99975.31
2019-06-01T08:36:25.720Z,99978.28
2019-06-01T08:38:55.249Z,99981.02
2019-06-01T08:41:25.539Z,99985.74
2019-06-01T08:43:55.087Z,99987.69
2019-06-01T08:46:25.563Z,99982.88
2019-06-01T08:48:55.071Z,99981.81
2019-06-01T08:51:26.375Z,99989.86
2019-06-01T08:53:56.084Z,99987.34
2019-06-01T08:56:26.104Z,99982.69
2019-06-01T08:58:55.767Z,99979.41
2019-06-01T09:01:26.439Z,99992.13
2019-06-01T09:03:55.914Z,99987.17
2019-06-01T09:06:26.437Z,99991.27
2019-06-01T09:08:56.331Z,99991.03
2019-06-01T09:11:26.981Z,99992.96
2019-06-01T09:13:56.576Z,99986.39
2019-06-01T09:16:27.683Z,99991.05
2019-06-01T09:18:57.372Z,99987.69
2019-06-01T09:21:27.483Z,99981.41
2019-06-01T09:23:57.153Z,99978.30
2019-06-01T09:26:27.751Z,99982.14
2019-06-01T09:28:57.338Z,99975.23
2019-06-01T09:31:28.243Z,99974.09
2019-06-01T09:33:57.994Z,99980.16
2019-06-01T09:36:28.338Z,99983.16
2019-06-01T09:38:57.984Z,99981.55
2019-06-01T09:41:28.320Z,99979.92
2019-06-01T09:43:58.871Z,99977.75
2019-06-01T09:46:28.887Z,99976.29
2019-06-01T09:48:58.567Z,99978.63
2019-06-01T09:51:29.366Z,99977.80
2019-06-01T09:53:58.950Z,99973.81
2019-06-01T09:56:29.727Z,99972.16
2019-06-01T09:58:59.830Z,99968.58
2019-06-01T10:01:30.054Z,99968.13
2019-06-01T10:03:59.792Z,99968.75
2019-06-01T10:06:30.387Z,99960.23
2019-06-01T10:08:59.968Z,99965.74
2019-06-01T10:11:29.899Z,99959.36
2019-06-01T10:13:59.637Z,99965.37
2019-06-01T10:16:30.460Z,99962.91
2019-06-01T10:18:59.973Z,99962.39
2019-06-01T10:21:29.815Z,99958.30
2019-06-01T10:23:59.462Z,99961.56
2019-06-01T10:26:29.028Z,99955.20
2019-06-01T10:28:58.628Z,99953.52
2019-06-01T10:31:28.168Z,99961.16
2019-06-01T10:33:57.750Z,99944.55
2019-06-01T10:36:27.359Z,99952.50
2019-06-01T10:38:56.897Z,99950.39
2019-06-01T10:41:26.398Z,99945.08
2019-06-01T10:43:55.840Z,99947.16
2019-06-01T10:46:25.417Z,99955.03
2019-06-01T10:48:54.958Z,99943.34
2019-06-01T10:51:24.497Z,99939.44
2019-06-01T10:53:54.140Z,99941.77
2019-06-01T10:56:23.689Z,99931.86
2019-06-01T10:59:00.147Z,99935.13
2019-06-01T11:01:24.334Z,99938.28
2019-06-01T11:03:53.981Z,99942.32
2019-06-01T11:06:36.645Z,99932.82
2019-06-01T11:08:54.624Z,99935.02
2019-06-01T11:11:24.058Z,99926.59
2019-06-01T11:13:53.604Z,99928.36
2019-06-01T11:16:23.066Z,99921.38
2019-06-01T11:18:52.499Z,99911.63
2019-06-01T11:21:22.034Z,99910.80
2019-06-01T11:23:51.548Z,99910.77
2019-06-01T11:26:21.077Z,99911.97
2019-06-01T11:28:50.585Z,99910.63
2019-06-01T11:31:20.096Z,99907.86
2019-06-01T11:33:49.553Z,99895.45
2019-06-01T11:36:19.155Z,99895.99
2019-06-01T11:38:48.797Z,99898.76
2019-06-01T11:41:18.806Z,99903.06
2019-06-01T11:43:48.676Z,99892.86
2019-06-01T11:46:18.165Z,99895.71
2019-06-01T11:48:47.725Z,99896.27
2019-06-01T11:51:17.242Z,99893.49
2019-06-01T11:53:46.843Z,99894.31
2019-06-01T11:56:16.379Z,99889.30
2019-06-01T11:58:45.960Z,99885.04
2019-06-01T12:01:15.505Z,99886.59
2019-06-01T12:03:46.162Z,99881.21
2019-06-01T12:06:15.683Z,99892.41
2019-06-01T12:08:46.383Z,99892.45
2019-06-01T12:11:16.079Z,99883.73
2019-06-01T12:13:46.531Z,99884.08
2019-06-01T12:16:16.259Z,99880.20
2019-06-01T12:18:46.910Z,99883.80
2019-06-01T12:21:16.380Z,99875.02
2019-06-01T12:23:46.002Z,99884.87
2019-06-01T12:26:15.505Z,99884.92
2019-06-01T12:28:45.836Z,99888.88
2019-06-01T12:31:15.493Z,99880.78
2019-06-01T12:33:46.254Z,99881.13
2019-06-01T12:36:16.037Z,99880.56
2019-06-01T12:38:52.502Z,99880.50
2019-06-01T12:41:22.380Z,99880.80
2019-06-01T12:44:09.459Z,99876.58
2019-06-01T12:46:39.796Z,99874.73
2019-06-01T12:49:09.637Z,99866.98
2019-06-01T12:51:40.495Z,99865.86
2019-06-01T12:54:10.194Z,99865.28
2019-06-01T12:56:40.710Z,99865.28
2019-06-01T12:59:10.411Z,99865.97
2019-06-01T13:01:40.986Z,99870.05
2019-06-01T13:04:12.621Z,99869.38
2019-06-01T13:06:42.674Z,99864.16
2019-06-01T13:09:12.448Z,99862.45
2019-06-01T13:11:43.102Z,99859.66
2019-06-01T13:14:12.723Z,99858.73
2019-06-01T13:16:47.390Z,99857.69
2019-06-01T13:19:13.490Z,99860.34
2019-06-01T13:21:43.380Z,99856.55
2019-06-01T13:24:12.878Z,99860.06
2019-06-01T13:26:43.613Z,99854.84
2019-06-01T13:29:13.220Z,99851.16
2019-06-01T13:31:44.042Z,99845.70
2019-06-01T13:34:13.746Z,99840.92
2019-06-01T13:36:44.493Z,99845.12
2019-06-01T13:39:14.104Z,99848.77
2019-06-01T13:41:44.949Z,99844.26
2019-06-01T13:44:14.594Z,99846.39
2019-06-01T13:46:45.199Z,99841.19
2019-06-01T13:49:14.758Z,99840.33
2019-06-01T13:51:45.897Z,99838.61
2019-06-01T13:54:15.630Z,99832.86
2019-06-01T13:56:45.109Z,99834.75
2019-06-01T13:59:14.632Z,99829.78
2019-06-01T14:01:45.009Z,99830.20
2019-06-01T14:04:14.698Z,99827.05
2019-06-01T14:06:45.126Z,99821.20
2019-06-01T14:09:14.764Z,99825.81
2019-06-01T14:11:45.272Z,99820.66
2019-06-01T14:14:14.850Z,99823.19
2019-06-01T14:16:45.452Z,99817.08
2019-06-01T14:19:15.155Z,99815.47
2019-06-01T14:21:45.703Z,99818.18
2019-06-01T14:24:15.281Z,99816.46
2019-06-01T14:26:46.029Z,99809.27
2019-06-01T14:29:15.580Z,99813.66
2019-06-01T14:31:46.461Z,99803.59
2019-06-01T14:34:16.072Z,99796.27
2019-06-01T14:36:46.408Z,99797.48
2019-06-01T14:39:15.978Z,99798.91
2019-06-01T14:41:46.734Z,99796.72
2019-06-01T14:44:16.208Z,99797.59
2019-06-01T14:46:55.013Z,99793.48
2019-06-01T14:49:16.788Z,99790.10
2019-06-01T14:51:47.464Z,99787.38
2019-06-01T14:54:17.084Z,99783.81
2019-06-01T14:56:47.545Z,99776.44
2019-06-01T14:59:17.687Z,99773.44
2019-06-01T15:01:48.191Z,99769.03
2019-06-01T15:04:17.658Z,99774.05
2019-06-01T15:06:48.177Z,99772.35
2019-06-01T15:09:19.630Z,99764.67
2019-06-01T15:11:49.347Z,99769.06
2019-06-01T15:14:20.127Z,99772.97
2019-06-01T15:16:49.699Z,99763.33
2019-06-01T15:19:19.130Z,99757.54
2019-06-01T15:21:49.799Z,99751.22
2019-06-01T15:24:19.971Z,99753.15
2019-06-01T15:26:50.451Z,99755.08
2019-06-01T15:29:20.057Z,99756.16
2019-06-01T15:31:50.995Z,99758.04
2019-06-01T15:34:20.613Z,99754.11
2019-06-01T15:36:51.433Z,99760.33
2019-06-01T15:39:24.665Z,99763.85
2019-06-01T15:41:53.039Z,99758.56
2019-06-01T15:44:22.720Z,99753.30
2019-06-01T15:46:53.531Z,99754.96
2019-06-01T15:49:23.208Z,99748.67
2019-06-01T15:51:53.659Z,99746.28
2019-06-01T15:54:23.155Z,99742.86
2019-06-01T15:56:52.595Z,99747.30
2019-06-01T15:59:22.091Z,99751.17
2019-06-01T16:01:52.901Z,99755.89
2019-06-01T16:04:22.437Z,99754.53
2019-06-01T16:06:53.003Z,99758.95
2019-06-01T16:09:22.474Z,99756.75
2019-06-01T16:11:53.369Z,99763.61
2019-06-01T16:14:22.915Z,99758.41
2019-06-01T16:16:53.710Z,99759.22
2019-06-01T16:19:23.266Z,99753.42
2019-06-01T16:21:53.707Z,99757.83
2019-06-01T16:24:23.276Z,99756.98
2019-06-01T16:26:52.783Z,99765.23
2019-06-01T16:29:22.234Z,99765.50
2019-06-01T16:31:51.674Z,99766.57
2019-06-01T16:34:21.392Z,99769.32
2019-06-01T16:36:51.047Z,99774.28
2019-06-01T16:39:20.500Z,99779.52
2019-06-01T16:41:50.040Z,99778.41
2019-06-01T16:44:20.034Z,99774.56
2019-06-01T16:46:49.638Z,99769.59
2019-06-01T16:49:19.083Z,99767.92
2019-06-01T16:51:53.151Z,99772.02
2019-06-01T16:54:22.682Z,99773.55
2019-06-01T16:56:52.153Z,99776.75
2019-06-01T16:59:21.717Z,99774.46
2019-06-01T17:01:51.223Z,99776.06
2019-06-01T17:04:22.026Z,99781.15
2019-06-01T17:06:51.484Z,99780.48
2019-06-01T17:09:20.901Z,99789.21
2019-06-01T17:11:50.403Z,99792.18
2019-06-01T17:14:19.880Z,99794.41
2019-06-01T17:16:49.339Z,99788.06
2019-06-01T17:19:18.791Z,99791.36
2019-06-01T17:21:48.236Z,99790.21
2019-06-01T17:24:17.682Z,99792.35
2019-06-01T17:26:47.121Z,99796.18
2019-06-01T17:29:16.525Z,99786.80
2019-06-01T17:31:54.335Z,99795.77
2019-06-01T17:34:17.583Z,99796.94
2019-06-01T17:36:47.045Z,99790.78
2019-06-01T17:39:16.500Z,99793.37
2019-06-01T17:41:45.950Z,99792.96
2019-06-01T17:44:15.390Z,99787.65
2019-06-01T17:46:53.378Z,99788.06
2019-06-01T17:49:16.104Z,99783.50
2019-06-01T17:51:45.550Z,99783.36
2019-06-01T17:54:14.998Z,99788.66
2019-06-01T17:56:44.512Z,99791.23
2019-06-01T17:59:13.983Z,99804.34
2019-06-01T18:01:43.465Z,99801.08
2019-06-01T18:04:12.902Z,99800.23
2019-06-01T18:06:42.444Z,99791.35
2019-06-01T18:09:12.305Z,99791.00
2019-06-01T18:11:41.714Z,99791.13
2019-06-01T18:14:12.277Z,99796.16
2019-06-01T18:16:41.798Z,99797.41
2019-06-01T18:19:12.273Z,99795.30
2019-06-01T18:21:41.982Z,99798.94
2019-06-01T18:24:12.619Z,99792.22
2019-06-01T18:26:42.164Z,99797.50
2019-06-01T18:29:12.719Z,99800.88
2019-06-01T18:31:42.295Z,99799.38
2019-06-01T18:34:11.899Z,99790.76
2019-06-01T18:36:41.351Z,99793.05
2019-06-01T18:39:11.785Z,99799.66
2019-06-01T18:41:41.717Z,99809.48
2019-06-01T18:44:11.874Z,99816.92
2019-06-01T18:46:41.483Z,99827.81
2019-06-01T18:49:11.963Z,99821.29
2019-06-01T18:51:41.474Z,99828.56
2019-06-01T18:54:10.927Z,99829.02
2019-06-01T18:56:40.395Z,99825.59
2019-06-01T18:59:10.294Z,99820.55
2019-06-01T19:01:39.769Z,99814.26
2019-06-01T19:04:09.728Z,99821.30
2019-06-01T19:06:39.376Z,99817.80
2019-06-01T19:09:09.521Z,99815.63
2019-06-01T19:11:38.933Z,99811.55
2019-06-01T19:14:09.697Z,99812.42
2019-06-01T19:16:39.211Z,99831.54
2019-06-01T19:19:08.667Z,99831.77
2019-06-01T19:21:38.103Z,99844.41
2019-06-01T19:24:08.487Z,99858.52
2019-06-01T19:26:39.160Z,99862.44
2019-06-01T19:29:08.810Z,99858.95
2019-06-01T19:31:38.521Z,99856.52
2019-06-01T19:34:08.899Z,99860.72
2019-06-01T19:36:38.848Z,99859.79
2019-06-01T19:39:09.200Z,99865.72
2019-06-01T19:41:44.580Z,99868.91
2019-06-01T19:44:09.939Z,99872.04
2019-06-01T19:46:39.601Z,99878.99
2019-06-01T19:49:10.690Z,99883.78
2019-06-01T19:51:40.544Z,99878.72
2019-06-01T19:54:10.798Z,99872.28
2019-06-01T19:56:40.252Z,99870.92
2019-06-01T19:59:09.965Z,99872.79
2019-06-01T20:01:39.633Z,99882.81
2019-06-01T20:04:10.370Z,99875.00
2019-06-01T20:06:39.910Z,99874.00
2019-06-01T20:09:10.914Z,99862.02
2019-06-01T20:11:40.641Z,99857.93
2019-06-01T20:14:10.264Z,99861.98
2019-06-01T20:16:39.755Z,99860.84
2019-06-01T20:19:09.395Z,99856.30
2019-06-01T20:21:38.841Z,99858.59
2019-06-01T20:24:08.452Z,99856.28
2019-06-01T20:26:44.609Z,99863.79
2019-06-01T20:29:09.458Z,99867.12
2019-06-01T20:31:39.004Z,99858.29
2019-06-01T20:34:08.575Z,99859.49
2019-06-01T20:36:38.247Z,99862.36
2019-06-01T20:39:08.869Z,99857.64
2019-06-01T20:41:38.511Z,99859.12
2019-06-01T20:44:07.990Z,99856.39
2019-06-01T20:46:37.513Z,99854.16
2019-06-01T20:49:07.079Z,99852.95
2019-06-01T20:51:36.643Z,99856.00
2019-06-01T20:54:06.115Z,99866.02
2019-06-01T20:56:35.559Z,99875.86
2019-06-01T20:59:05.072Z,99882.52
2019-06-01T21:01:34.627Z,99875.73
2019-06-01T21:04:04.066Z,99878.87
2019-06-01T21:06:33.684Z,99880.07
2019-06-01T21:09:05.012Z,99883.14
2019-06-01T21:11:34.595Z,99877.45
2019-06-01T21:14:04.205Z,99875.42
2019-06-01T21:16:33.818Z,99870.87
2019-06-01T21:19:03.355Z,99875.06
2019-06-01T21:21:32.854Z,99876.27
2019-06-01T21:24:02.473Z,99884.02
2019-06-01T21:26:31.912Z,99883.86
2019-06-01T21:29:01.482Z,99888.88
2019-06-01T21:31:31.021Z,99888.12
2019-06-01T21:34:00.585Z,99890.38
2019-06-01T21:36:30.125Z,99897.84
2019-06-01T21:38:59.812Z,99890.55
2019-06-01T21:41:29.382Z,99890.91
2019-06-01T21:43:58.817Z,99880.55
2019-06-01T21:46:28.275Z,99874.62
2019-06-01T21:48:57.883Z,99874.15
2019-06-01T21:51:27.401Z,99879.37
2019-06-01T21:53:56.845Z,99875.02
2019-06-01T21:56:26.686Z,99877.48
2019-06-01T21:58:56.220Z,99874.98
2019-06-01T22:01:26.999Z,99883.17
2019-06-01T22:03:56.480Z,99892.73
2019-06-01T22:06:27.472Z,99888.10
2019-06-01T22:08:57.358Z,99881.27
2019-06-01T22:11:27.528Z,99877.35
2019-06-01T22:13:57.049Z,99873.73
2019-06-01T22:16:27.835Z,99873.93
2019-06-01T22:18:57.620Z,99871.07
2019-06-01T22:21:27.936Z,99869.67
2019-06-01T22:23:57.670Z,99875.60
2019-06-01T22:26:28.343Z,99882.06
2019-06-01T22:28:58.110Z,99886.98
2019-06-01T22:31:28.688Z,99887.81
2019-06-01T22:33:58.247Z,99879.16
2019-06-01T22:36:27.887Z,99884.72
2019-06-01T22:38:57.459Z,99897.90
2019-06-01T22:41:28.041Z,99896.67
2019-06-01T22:43:57.623Z,99881.68
2019-06-01T22:46:28.426Z,99880.98
2019-06-01T22:48:58.389Z,99875.75
2019-06-01T22:51:29.368Z,99873.16
2019-06-01T22:53:59.236Z,99864.67
2019-06-01T22:56:29.440Z,99863.30
2019-06-01T22:58:58.995Z,99880.28
2019-06-01T23:01:28.833Z,99875.89
2019-06-01T23:03:58.287Z,99884.38
2019-06-01T23:06:29.102Z,99876.45
2019-06-01T23:08:58.765Z,99876.75
2019-06-01T23:11:29.485Z,99874.83
2019-06-01T23:13:59.138Z,99872.56
2019-06-01T23:16:29.745Z,99870.30
2019-06-01T23:18:59.337Z,99871.91
2019-06-01T23:21:29.974Z,99869.44
2019-06-01T23:23:59.667Z,99862.55
2019-06-01T23:26:30.269Z,99851.80
2019-06-01T23:28:59.898Z,99838.89
2019-06-01T23:31:30.446Z,99833.90
2019-06-01T23:34:00.191Z,99832.70
2019-06-01T23:36:30.669Z,99838.36
2019-06-01T23:39:00.326Z,99840.69
2019-06-01T23:41:30.844Z,99852.00
2019-06-01T23:44:11.154Z,99854.86
2019-06-01T23:46:33.015Z,99862.98
2019-06-01T23:49:02.902Z,99857.69
2019-06-01T23:51:33.908Z,99855.87
2019-06-01T23:54:03.636Z,99852.52
2019-06-01T23:56:34.682Z,99855.33
2019-06-01T23:59:04.193Z,99852.20
